createdAt,value
2022-10-31T00:01:00.678Z,50.80
2022-10-31T00:03:39.532Z,57.40
2022-10-31T00:06:06.772Z,61.50
2022-10-31T00:08:33.829Z,108.50
2022-10-31T00:11:01.018Z,86.30
2022-10-31T00:13:28.130Z,70.00
2022-10-31T00:15:55.300Z,74.60
2022-10-31T00:18:22.425Z,78.10
2022-10-31T00:20:49.427Z,56.30
2022-10-31T00:23:16.601Z,53.70
2022-10-31T00:25:43.704Z,56.20
2022-10-31T00:28:12.913Z,55.70
2022-10-31T00:30:40.130Z,59.70
2022-10-31T00:33:07.157Z,51.00
2022-10-31T00:35:34.396Z,62.60
2022-10-31T00:38:01.658Z,66.50
2022-10-31T00:40:28.761Z,69.10
2022-10-31T00:42:55.959Z,68.80
2022-10-31T00:45:24.147Z,76.70
2022-10-31T00:47:51.534Z,57.80
2022-10-31T00:50:18.782Z,54.00
2022-10-31T00:52:45.774Z,50.40
2022-10-31T00:55:12.979Z,47.70
2022-10-31T00:57:40.396Z,51.40
2022-10-31T01:00:08.306Z,37.00
2022-10-31T01:02:35.906Z,37.50
2022-10-31T01:05:03.312Z,35.30
2022-10-31T01:07:30.346Z,36.00
2022-10-31T01:09:57.457Z,37.60
2022-10-31T01:12:26.565Z,33.60
2022-10-31T01:14:53.672Z,35.10
2022-10-31T01:17:20.797Z,29.00
2022-10-31T01:19:47.820Z,36.40
2022-10-31T01:22:14.917Z,49.70
2022-10-31T01:24:41.995Z,133.30
2022-10-31T01:27:09.076Z,132.20
2022-10-31T01:29:36.236Z,74.70
2022-10-31T01:32:03.435Z,71.60
2022-10-31T01:34:30.592Z,60.80
2022-10-31T01:36:57.800Z,140.60
2022-10-31T01:39:24.996Z,71.30
2022-10-31T01:41:54.279Z,55.50
2022-10-31T01:44:21.398Z,52.60
2022-10-31T01:46:59.557Z,60.00
2022-10-31T01:49:32.575Z,45.30
2022-10-31T01:52:10.874Z,42.80
2022-10-31T01:54:43.972Z,62.40
2022-10-31T01:57:14.230Z,55.40
2022-10-31T01:59:45.139Z,55.90
2022-10-31T02:02:14.094Z,45.30
2022-10-31T02:04:42.199Z,42.90
2022-10-31T02:07:17.334Z,46.40
2022-10-31T02:09:47.559Z,42.50
2022-10-31T02:12:15.940Z,45.70
2022-10-31T02:14:43.294Z,36.50
2022-10-31T02:17:10.483Z,32.80
2022-10-31T02:19:58.279Z,31.50
2022-10-31T02:22:28.484Z,32.20
2022-10-31T02:25:42.867Z,35.90
2022-10-31T02:28:28.209Z,35.60
2022-10-31T02:31:16.995Z,43.40
2022-10-31T02:33:50.698Z,46.10
2022-10-31T02:36:30.602Z,45.90
2022-10-31T02:39:00.548Z,37.40
2022-10-31T02:41:46.154Z,46.50
2022-10-31T02:44:45.657Z,46.40
2022-10-31T02:47:29.380Z,48.90
2022-10-31T02:50:09.939Z,40.30
2022-10-31T02:52:39.390Z,40.50
2022-10-31T02:55:27.917Z,39.40
2022-10-31T02:58:07.613Z,33.00
2022-10-31T03:00:48.411Z,28.70
2022-10-31T03:03:40.435Z,29.30
2022-10-31T03:06:15.638Z,18.10
2022-10-31T03:08:55.642Z,22.70
2022-10-31T03:11:29.432Z,22.00
2022-10-31T03:14:10.134Z,27.50
2022-10-31T03:16:56.517Z,27.10
2022-10-31T03:19:27.575Z,29.40
2022-10-31T03:22:05.848Z,37.80
2022-10-31T03:24:39.613Z,33.10
2022-10-31T03:27:10.981Z,44.00
2022-10-31T03:29:41.343Z,37.50
2022-10-31T03:32:24.916Z,34.20
2022-10-31T03:34:58.184Z,49.80
2022-10-31T03:37:28.110Z,47.00
2022-10-31T03:39:58.311Z,32.50
2022-10-31T03:42:28.357Z,32.00
2022-10-31T03:45:03.237Z,36.50
2022-10-31T03:47:30.713Z,33.30
2022-10-31T03:49:58.646Z,26.00
2022-10-31T03:52:38.653Z,28.50
2022-10-31T03:55:11.882Z,33.20
2022-10-31T03:57:48.298Z,30.50
2022-10-31T04:00:17.505Z,27.10
2022-10-31T04:03:10.340Z,26.60
2022-10-31T04:05:39.273Z,28.00
2022-10-31T04:08:11.022Z,28.30
2022-10-31T04:10:39.899Z,26.60
2022-10-31T04:13:11.355Z,32.50
2022-10-31T04:15:50.052Z,33.80
2022-10-31T04:18:17.627Z,36.20
2022-10-31T04:20:45.032Z,25.50
2022-10-31T04:23:23.286Z,28.30
2022-10-31T04:25:50.573Z,40.00
2022-10-31T04:30:46.316Z,67.00
2022-10-31T04:33:13.460Z,50.20
2022-10-31T04:35:41.284Z,42.20
2022-10-31T04:38:08.467Z,39.70
2022-10-31T04:40:35.812Z,135.50
2022-10-31T04:43:21.587Z,72.30
2022-10-31T04:45:49.112Z,30.50
2022-10-31T04:48:16.570Z,20.30
2022-10-31T04:50:45.253Z,27.20
2022-10-31T04:53:13.712Z,37.80
2022-10-31T04:56:01.649Z,36.70
2022-10-31T04:58:37.185Z,25.80
2022-10-31T05:01:06.607Z,29.90
2022-10-31T05:03:33.940Z,34.20
2022-10-31T05:06:01.084Z,22.20
2022-10-31T05:08:28.436Z,22.10
2022-10-31T05:10:57.355Z,22.50
2022-10-31T05:13:27.865Z,43.00
2022-10-31T05:16:13.315Z,33.30
2022-10-31T05:19:02.952Z,29.30
2022-10-31T05:22:02.551Z,31.50
2022-10-31T05:24:29.850Z,21.60
2022-10-31T05:26:56.993Z,32.70
2022-10-31T05:29:24.212Z,37.70
2022-10-31T05:31:52.171Z,22.90
2022-10-31T05:34:42.372Z,78.40
2022-10-31T05:37:32.146Z,22.60
2022-10-31T05:40:05.298Z,26.60
2022-10-31T05:42:35.480Z,27.80
2022-10-31T05:45:02.677Z,28.60
2022-10-31T05:47:57.175Z,25.40
2022-10-31T05:50:44.936Z,28.40
2022-10-31T05:53:12.498Z,37.80
2022-10-31T05:55:41.871Z,65.90
2022-10-31T05:58:14.368Z,27.80
2022-10-31T06:00:48.110Z,56.90
2022-10-31T06:03:15.846Z,41.10
2022-10-31T06:05:55.787Z,65.80
2022-10-31T06:08:25.885Z,74.60
2022-10-31T06:10:54.869Z,59.60
2022-10-31T06:13:31.007Z,59.60
2022-10-31T06:16:09.352Z,84.30
2022-10-31T06:18:37.443Z,35.50
2022-10-31T06:21:04.662Z,34.70
2022-10-31T06:23:31.756Z,59.80
2022-10-31T06:26:18.899Z,38.00
2022-10-31T06:28:46.079Z,30.80
2022-10-31T06:31:25.066Z,39.10
2022-10-31T06:33:52.668Z,45.50
2022-10-31T06:36:19.909Z,37.90
2022-10-31T06:38:47.868Z,39.60
2022-10-31T06:41:16.713Z,30.70
2022-10-31T06:43:48.294Z,29.80
2022-10-31T06:46:50.259Z,33.60
2022-10-31T06:49:35.885Z,33.70
2022-10-31T06:52:06.411Z,30.80
2022-10-31T06:54:33.552Z,26.30
2022-10-31T06:57:01.077Z,31.40
2022-10-31T06:59:28.776Z,21.30
2022-10-31T07:02:16.268Z,26.20
2022-10-31T07:04:43.691Z,132.80
2022-10-31T07:07:13.756Z,114.30
2022-10-31T07:09:41.123Z,113.80
2022-10-31T07:12:09.732Z,23.50
2022-10-31T07:14:39.192Z,45.90
2022-10-31T07:17:06.349Z,51.70
2022-10-31T07:19:37.015Z,54.80
2022-10-31T07:22:04.076Z,41.00
2022-10-31T07:24:31.606Z,28.30
2022-10-31T07:29:26.886Z,58.30
2022-10-31T07:31:53.972Z,55.10
2022-10-31T07:34:25.325Z,40.90
2022-10-31T07:37:30.840Z,40.70
2022-10-31T07:39:59.199Z,34.30
2022-10-31T07:42:26.387Z,41.80
2022-10-31T07:44:56.751Z,32.30
2022-10-31T07:47:53.313Z,32.80
2022-10-31T07:50:38.945Z,32.90
2022-10-31T07:53:32.079Z,29.60
2022-10-31T07:56:11.809Z,29.80
2022-10-31T07:58:38.845Z,21.90
2022-10-31T08:01:06.221Z,28.50
2022-10-31T08:03:39.212Z,27.00
2022-10-31T08:06:26.384Z,32.10
2022-10-31T08:08:55.924Z,24.20
2022-10-31T08:11:23.738Z,19.80
2022-10-31T08:13:50.878Z,24.70
2022-10-31T08:16:18.637Z,21.80
2022-10-31T08:18:57.899Z,20.50
2022-10-31T08:21:25.092Z,26.00
2022-10-31T08:23:52.167Z,20.90
2022-10-31T08:26:21.164Z,21.40
2022-10-31T08:28:50.921Z,25.90
2022-10-31T08:31:20.099Z,22.80
2022-10-31T08:33:47.263Z,23.60
2022-10-31T08:36:20.991Z,20.60
2022-10-31T08:39:15.082Z,22.60
2022-10-31T08:41:42.319Z,21.70
2022-10-31T08:44:12.174Z,27.40
2022-10-31T08:46:39.554Z,33.40
2022-10-31T08:49:06.779Z,24.10
2022-10-31T08:51:34.797Z,23.80
2022-10-31T08:54:01.944Z,29.80
2022-10-31T08:57:04.385Z,21.60
2022-10-31T08:59:43.429Z,21.60
2022-10-31T09:02:24.924Z,21.00
2022-10-31T09:04:54.630Z,16.70
2022-10-31T09:07:22.430Z,22.60
2022-10-31T09:09:49.571Z,16.00
2022-10-31T09:12:17.541Z,24.40
2022-10-31T09:15:07.900Z,24.20
2022-10-31T09:17:49.390Z,27.30
2022-10-31T09:20:30.591Z,33.20
2022-10-31T09:23:07.284Z,36.50
2022-10-31T09:25:36.661Z,25.50
2022-10-31T09:28:29.616Z,25.00
2022-10-31T09:30:59.589Z,23.90
2022-10-31T09:33:45.728Z,25.70
2022-10-31T09:39:13.136Z,79.10
2022-10-31T09:42:02.372Z,52.30
2022-10-31T09:44:48.021Z,42.80
2022-10-31T09:47:53.248Z,28.70
2022-10-31T09:50:48.598Z,29.30
2022-10-31T09:53:51.396Z,30.50
2022-10-31T09:56:24.055Z,40.30
2022-10-31T09:58:59.311Z,53.80
2022-10-31T10:01:48.766Z,36.30
2022-10-31T10:04:35.276Z,49.30
2022-10-31T10:07:20.503Z,37.80
2022-10-31T10:10:22.888Z,27.20
2022-10-31T10:13:40.501Z,29.10
2022-10-31T10:16:16.060Z,53.60
2022-10-31T10:21:53.648Z,51.30
2022-10-31T10:24:29.594Z,43.00
2022-10-31T10:27:22.368Z,50.10
2022-10-31T10:30:09.512Z,28.60
2022-10-31T10:32:52.183Z,25.70
2022-10-31T10:35:40.412Z,38.20
2022-10-31T10:38:26.047Z,37.90
2022-10-31T10:40:54.907Z,54.30
2022-10-31T10:43:28.483Z,37.20
2022-10-31T10:46:39.213Z,41.10
2022-10-31T10:49:17.994Z,33.30
2022-10-31T10:54:48.914Z,35.90
2022-10-31T10:57:22.007Z,37.80
2022-10-31T10:59:49.998Z,35.10
2022-10-31T11:02:25.471Z,23.40
2022-10-31T11:04:55.923Z,37.90
2022-10-31T11:07:23.239Z,32.70
2022-10-31T11:09:50.555Z,37.80
2022-10-31T11:12:22.681Z,40.10
2022-10-31T11:14:49.753Z,48.30
2022-10-31T11:17:31.809Z,43.90
2022-10-31T11:20:22.863Z,45.40
2022-10-31T11:22:50.444Z,46.50
2022-10-31T11:25:20.281Z,56.60
2022-10-31T11:27:47.870Z,59.10
2022-10-31T11:30:16.404Z,68.30
2022-10-31T11:32:55.057Z,69.00
2022-10-31T11:35:25.368Z,51.40
2022-10-31T11:37:55.031Z,43.50
2022-10-31T11:40:27.211Z,49.60
2022-10-31T11:42:58.540Z,54.80
2022-10-31T11:45:30.960Z,60.90
2022-10-31T11:48:00.223Z,58.40
2022-10-31T11:50:37.747Z,59.80
2022-10-31T11:53:12.464Z,53.50
2022-10-31T11:55:41.002Z,48.40
2022-10-31T11:58:27.090Z,49.80
2022-10-31T12:00:56.743Z,51.80
2022-10-31T12:03:23.837Z,52.80
2022-10-31T12:06:01.003Z,61.20
2022-10-31T12:08:32.436Z,50.90
2022-10-31T12:11:03.201Z,57.10
2022-10-31T12:13:38.630Z,51.30
2022-10-31T12:16:43.212Z,54.30
2022-10-31T12:19:39.114Z,71.50
2022-10-31T12:22:20.861Z,69.50
2022-10-31T12:25:14.153Z,68.10
2022-10-31T12:28:05.060Z,62.50
2022-10-31T12:31:09.835Z,58.30
2022-10-31T12:34:09.318Z,67.90
2022-10-31T12:36:54.528Z,63.80
2022-10-31T12:39:26.088Z,65.10
2022-10-31T12:41:57.544Z,69.80
2022-10-31T12:44:50.657Z,69.30
2022-10-31T12:47:36.146Z,72.30
2022-10-31T12:50:21.748Z,58.30
2022-10-31T12:53:10.918Z,62.60
2022-10-31T12:55:56.948Z,69.00
2022-10-31T13:01:24.003Z,76.90
2022-10-31T13:04:04.425Z,60.20
2022-10-31T13:06:42.002Z,62.00
2022-10-31T13:09:16.727Z,64.00
2022-10-31T13:11:49.567Z,71.70
2022-10-31T13:14:25.689Z,76.70
2022-10-31T13:16:53.536Z,67.20
2022-10-31T13:19:27.429Z,71.20
2022-10-31T13:22:00.503Z,60.50
2022-10-31T13:24:37.900Z,55.00
2022-10-31T13:27:21.635Z,54.60
2022-10-31T13:30:00.559Z,66.80
2022-10-31T13:32:38.274Z,63.20
2022-10-31T13:35:08.875Z,73.40
2022-10-31T13:37:41.804Z,80.50
2022-10-31T13:40:34.390Z,65.30
2022-10-31T13:43:25.379Z,54.60
2022-10-31T13:45:54.809Z,57.50
2022-10-31T13:48:42.171Z,53.70
2022-10-31T13:51:12.010Z,52.10
2022-10-31T13:53:40.607Z,65.90
2022-10-31T13:56:10.753Z,103.90
2022-10-31T13:58:38.078Z,71.50
2022-10-31T14:01:11.438Z,65.50
2022-10-31T14:04:07.764Z,65.30
2022-10-31T14:06:55.749Z,66.10
2022-10-31T14:09:49.328Z,63.70
2022-10-31T14:12:27.259Z,65.10
2022-10-31T14:15:00.854Z,52.40
2022-10-31T14:17:35.245Z,69.10
2022-10-31T14:20:11.490Z,69.00
2022-10-31T14:22:42.802Z,75.90
2022-10-31T14:25:36.729Z,45.70
2022-10-31T14:28:20.409Z,50.30
2022-10-31T14:30:58.866Z,47.20
2022-10-31T14:33:29.329Z,51.00
2022-10-31T14:36:20.008Z,48.70
2022-10-31T14:38:57.753Z,55.00
2022-10-31T14:41:42.302Z,62.90
2022-10-31T14:44:25.551Z,74.70
2022-10-31T14:47:11.449Z,75.00
2022-10-31T14:52:15.474Z,86.10
2022-10-31T14:54:48.175Z,81.60
2022-10-31T14:57:20.112Z,65.60
2022-10-31T14:59:51.800Z,64.60
2022-10-31T15:02:37.804Z,62.30
2022-10-31T15:05:10.120Z,54.20
2022-10-31T15:07:41.018Z,53.00
2022-10-31T15:10:22.847Z,61.00
2022-10-31T15:12:50.229Z,65.60
2022-10-31T15:15:26.802Z,62.40
2022-10-31T15:18:00.915Z,75.60
2022-10-31T15:20:31.112Z,62.50
2022-10-31T15:23:00.108Z,68.80
2022-10-31T15:25:33.513Z,71.90
2022-10-31T15:28:00.861Z,89.50
2022-10-31T15:30:31.161Z,109.60
2022-10-31T15:32:59.234Z,91.50
2022-10-31T15:35:28.764Z,76.20
2022-10-31T15:37:57.937Z,56.80
2022-10-31T15:40:27.189Z,89.10
2022-10-31T15:43:05.698Z,74.90
2022-10-31T15:45:32.858Z,71.80
2022-10-31T15:48:18.378Z,93.50
2022-10-31T15:50:58.516Z,82.40
2022-10-31T15:53:47.740Z,73.60
2022-10-31T15:56:22.585Z,77.60
2022-10-31T15:58:53.316Z,66.00
2022-10-31T16:01:24.841Z,60.40
2022-10-31T16:04:24.865Z,64.90
2022-10-31T16:07:20.191Z,76.70
2022-10-31T16:09:53.733Z,92.40
2022-10-31T16:12:22.757Z,169.50
2022-10-31T16:14:52.702Z,219.70
2022-10-31T16:17:22.755Z,164.70
2022-10-31T16:20:00.096Z,120.80
2022-10-31T16:22:33.912Z,131.50
2022-10-31T16:25:18.024Z,89.10
2022-10-31T16:27:54.587Z,60.40
2022-10-31T16:30:46.807Z,81.60
2022-10-31T16:33:22.944Z,76.10
2022-10-31T16:35:53.252Z,103.50
2022-10-31T16:38:23.509Z,317.20
2022-10-31T16:40:52.465Z,298.70
2022-10-31T16:43:23.143Z,229.70
2022-10-31T16:45:53.776Z,87.30
2022-10-31T16:48:23.581Z,66.10
2022-10-31T16:50:53.973Z,73.70
2022-10-31T16:53:21.124Z,74.50
2022-10-31T16:56:03.680Z,72.10
2022-10-31T16:58:34.050Z,70.50
2022-10-31T17:01:02.642Z,90.00
2022-10-31T17:03:29.822Z,72.20
2022-10-31T17:05:57.226Z,73.40
2022-10-31T17:08:25.015Z,122.00
2022-10-31T17:10:54.797Z,67.10
2022-10-31T17:13:25.552Z,73.10
2022-10-31T17:15:55.409Z,79.60
2022-10-31T17:18:27.139Z,64.90
2022-10-31T17:21:00.292Z,67.60
2022-10-31T17:23:28.623Z,72.10
2022-10-31T17:25:56.958Z,61.70
2022-10-31T17:28:26.594Z,76.60
2022-10-31T17:30:55.902Z,87.40
2022-10-31T17:33:22.948Z,69.90
2022-10-31T17:35:50.170Z,72.00
2022-10-31T17:38:17.412Z,79.00
2022-10-31T17:40:44.619Z,79.00
2022-10-31T17:43:12.571Z,78.80
2022-10-31T17:45:41.487Z,93.00
2022-10-31T17:48:12.411Z,102.20
2022-10-31T17:50:39.621Z,90.40
2022-10-31T17:53:06.608Z,94.70
2022-10-31T17:55:36.984Z,80.40
2022-10-31T17:58:05.515Z,71.40
2022-10-31T18:00:32.607Z,92.50
2022-10-31T18:03:00.025Z,74.80
2022-10-31T18:05:27.503Z,89.60
2022-10-31T18:07:56.495Z,68.80
2022-10-31T18:10:25.745Z,71.30
2022-10-31T18:12:53.012Z,78.00
2022-10-31T18:15:20.433Z,89.90
2022-10-31T18:17:47.556Z,102.00
2022-10-31T18:20:14.577Z,88.00
2022-10-31T18:22:41.789Z,58.90
2022-10-31T18:25:09.080Z,143.10
2022-10-31T18:27:36.119Z,94.50
2022-10-31T18:30:03.493Z,115.80
2022-10-31T18:32:30.539Z,69.40
2022-10-31T18:34:57.689Z,110.70
2022-10-31T18:37:24.735Z,84.20
2022-10-31T18:39:51.852Z,89.20
2022-10-31T18:42:19.021Z,117.40
2022-10-31T18:44:46.070Z,86.40
2022-10-31T18:47:13.226Z,55.10
2022-10-31T18:49:40.367Z,76.90
2022-10-31T18:52:07.400Z,127.10
2022-10-31T18:54:34.495Z,102.80
2022-10-31T18:57:01.645Z,71.10
2022-10-31T18:59:28.648Z,73.50
2022-10-31T19:01:56.919Z,53.60
2022-10-31T19:04:24.312Z,40.80
2022-10-31T19:06:51.392Z,106.40
2022-10-31T19:09:18.630Z,45.80
2022-10-31T19:11:45.915Z,54.60
2022-10-31T19:14:14.921Z,54.70
2022-10-31T19:16:42.188Z,113.10
2022-10-31T19:19:09.799Z,50.20
2022-10-31T19:21:36.716Z,286.70
2022-10-31T19:24:04.048Z,276.30
2022-10-31T19:26:33.911Z,198.90
2022-10-31T19:29:01.140Z,112.40
2022-10-31T19:31:28.198Z,72.40
2022-10-31T19:33:55.369Z,84.70
2022-10-31T19:36:22.866Z,51.70
2022-10-31T19:38:52.449Z,56.90
2022-10-31T19:41:20.886Z,41.60
2022-10-31T19:43:48.503Z,51.30
2022-10-31T19:46:22.828Z,42.60
2022-10-31T19:49:01.348Z,66.10
2022-10-31T19:51:28.613Z,48.60
2022-10-31T19:53:55.767Z,50.00
2022-10-31T19:56:25.096Z,44.00
2022-10-31T19:58:52.567Z,41.70
2022-10-31T20:01:22.783Z,37.30
2022-10-31T20:03:50.688Z,64.30
2022-10-31T20:06:26.859Z,40.10
2022-10-31T20:08:56.311Z,35.90
2022-10-31T20:11:25.301Z,59.50
2022-10-31T20:13:55.028Z,44.10
2022-10-31T20:16:22.368Z,51.90
2022-10-31T20:18:49.736Z,42.70
2022-10-31T20:21:20.316Z,51.50
2022-10-31T20:23:47.894Z,38.10
2022-10-31T20:26:18.042Z,33.80
2022-10-31T20:28:46.517Z,37.10
2022-10-31T20:31:21.902Z,44.90
2022-10-31T20:33:49.553Z,55.30
2022-10-31T20:36:21.168Z,42.60
2022-10-31T20:38:48.193Z,71.90
2022-10-31T20:41:16.229Z,79.10
2022-10-31T20:43:43.976Z,50.90
2022-10-31T20:46:19.725Z,38.40
2022-10-31T20:48:47.725Z,31.50
2022-10-31T20:51:18.177Z,25.50
2022-10-31T20:53:45.369Z,22.60
2022-10-31T20:56:15.037Z,23.70
2022-10-31T20:58:43.752Z,30.50
2022-10-31T21:01:14.351Z,27.80
2022-10-31T21:03:42.419Z,31.50
2022-10-31T21:06:10.193Z,23.50
2022-10-31T21:08:38.264Z,24.90
2022-10-31T21:11:11.385Z,26.70
2022-10-31T21:13:43.324Z,22.60
2022-10-31T21:16:12.796Z,20.90
2022-10-31T21:18:42.129Z,22.50
2022-10-31T21:21:10.961Z,20.00
2022-10-31T21:23:38.704Z,25.70
2022-10-31T21:26:13.194Z,26.60
2022-10-31T21:28:40.801Z,23.10
2022-10-31T21:31:09.870Z,23.40
2022-10-31T21:33:37.584Z,20.80
2022-10-31T21:36:06.129Z,19.70
2022-10-31T21:38:34.485Z,24.50
2022-10-31T21:41:03.973Z,22.90
2022-10-31T21:43:32.052Z,23.70
2022-10-31T21:46:04.462Z,23.20
2022-10-31T21:48:31.839Z,23.70
2022-10-31T21:51:06.380Z,22.10
2022-10-31T21:53:52.232Z,19.70
2022-10-31T21:56:19.684Z,20.20
2022-10-31T21:58:46.868Z,20.20
2022-10-31T22:01:14.183Z,21.80
2022-10-31T22:03:42.313Z,23.00
2022-10-31T22:06:11.329Z,23.30
2022-10-31T22:08:39.808Z,23.50
2022-10-31T22:11:11.585Z,28.90
2022-10-31T22:13:38.637Z,27.50
2022-10-31T22:16:08.131Z,23.90
2022-10-31T22:18:35.880Z,24.10
2022-10-31T22:21:02.941Z,21.40
2022-10-31T22:23:30.987Z,19.40
2022-10-31T22:26:06.565Z,23.50
2022-10-31T22:31:08.157Z,24.30
2022-10-31T22:33:36.777Z,24.50
2022-10-31T22:36:07.249Z,23.80
2022-10-31T22:38:40.077Z,19.90
2022-10-31T22:41:09.822Z,21.30
2022-10-31T22:43:37.487Z,19.60
2022-10-31T22:46:06.605Z,21.30
2022-10-31T22:48:40.887Z,23.90
2022-10-31T22:51:12.704Z,29.30
2022-10-31T22:53:40.623Z,29.10
2022-10-31T22:56:08.981Z,26.00
2022-10-31T22:58:36.919Z,23.60
2022-10-31T23:01:15.199Z,23.80
2022-10-31T23:03:43.127Z,26.90
2022-10-31T23:06:14.446Z,24.70
2022-10-31T23:08:42.716Z,22.20
2022-10-31T23:11:22.276Z,24.50
2022-10-31T23:14:10.773Z,26.40
2022-10-31T23:16:58.777Z,30.70
2022-10-31T23:19:30.554Z,27.90
2022-10-31T23:22:04.172Z,23.80
2022-10-31T23:24:39.822Z,22.20
2022-10-31T23:29:54.169Z,20.20
2022-10-31T23:32:28.776Z,16.90
2022-10-31T23:34:59.907Z,19.80
2022-10-31T23:37:29.656Z,22.40
2022-10-31T23:39:57.189Z,20.70
2022-10-31T23:42:25.109Z,20.10
2022-10-31T23:44:52.554Z,23.20
2022-10-31T23:47:20.286Z,27.60
2022-10-31T23:49:48.061Z,20.40
2022-10-31T23:52:16.018Z,20.40
2022-10-31T23:54:43.472Z,21.10
2022-10-31T23:57:12.874Z,25.40
2022-10-31T23:59:39.953Z,20.20
